Monee, IL (60449)

1:18 PM CST on January 31, 2015 (GMT -0600)
APRSWXNET Peotone IL US | Change Station
CLOSE
Current Station
Personal Weather Station
Location: Peotone, IL
Elevation: 715 ft
Nearby Weather Stations
Active Advisory: Winter Storm Warning

Elev 715 ft 41.33 °N, 87.79 °W | Updated 47 minutes ago

Mostly Cloudy
Mostly Cloudy
38 °F
Feels Like 32 °F
N
9
Wind Variable Wind from WSW
Gusts 17.0 mph

Today
High -- | Low -- °F
--% Chance of Precip.
Yesterday
High -- | Low -- °F
Precip. -- in
7:03 AM 5:05 PM
Waxing Gibbous, 91% visible
Pressure 30.19 in
Visibility 10.0 miles
Clouds Mostly Cloudy 5500 ft
Overcast 7000 ft
Windchill 32 °F
Dew Point 30 °F
Humidity 73%
Rainfall 0.00 in
Snow Depth Not available.
UV 1 out of 12
Pollen .10 out of 12
Air Quality Not available.
Flu Activity Not available.
METAR KIGQ 311855Z AUTO 24011KT 10SM BKN055 OVC070 03/M04 A3019 RMK AO2 T00271036

More Conditions Fewer Conditions

Pressure 30.19 in
Visibility 10.0 miles
Clouds Mostly Cloudy 5500 ft
Overcast 7000 ft
Windchill 32 °F
Dew Point 30 °F
Humidity 73%
Rainfall 0.00 in
Snow Depth Not available.
UV 1 out of 12
Pollen .10 out of 12
Air Quality Not available.
Flu Activity Not available.
METAR KIGQ 311855Z AUTO 24011KT 10SM BKN055 OVC070 03/M04 A3019 RMK AO2 T00271036

More Conditions Fewer Conditions

10-Day Weather Forecast

Almanac

Astronomy

Jan. 31, 2015 Rise Set
Actual Time
Civil Twilight
Nautical Twilight
Astronomical Twilight
Moon
Length of Visible Light
Length of Day
Tomorrow will be .
, % of the Moon is Illuminated

Today's Extremes

State Highs State Lows

Community

WunderPhotos

Upload Photos

1,792,154 photos uploaded!

WunderBlogs® & News

Nearby

Air Quality

  Air Quality AQ Index Pollutant
Not available.

Snow Depth

Station Depth Elevation

Earthquake Activity

City Distance Mag. Time & Date
Minimum magnitude displayed is 2.5.

Coastal Water Temperatures

Place Temperature

Nearby Weather Stations